Terminal Aerodrome Forecast
Issued by NWS Medford, OR

Home | Current Version | Previous Version | Text Only | Print | Product List | Glossary On
Versions: 1 2 3 4 5 6 7 8 9 10 11 12 13 14 15 16 17 18 19 20 21 22 23 24 25 26
526
FTUS46 KMFR 060930 AAB
TAFMFR
TAF AMD
KMFR 060930Z 0610/0706 VRB03KT 4SM -SHSN BR BKN003 BKN020 OVC035
     FM061200 30003KT 1SM -SN BR SCT002 BKN006 OVC012
      TEMPO 0614/0617 1/2SM SN FG BKN003 OVC006
     FM061800 33005KT 6SM -SHSN BR SCT010 BKN020 OVC035
     FM070000 36005KT P6SM SCT015=

USA.gov is the U.S. government's official web portal to all federal, state and local government web resources and services.